Time;durP1;ratioP1;P1;durP2;ratioP2;P2;SDS_P1;SDS_P2;PMS_P1;PMS_P2;Temp;Humidity;BMP_temperature;BMP_pressure;BME280_temperature;BME280_humidity;BME280_pressure;Samples;Min_cycle;Max_cycle;Signal;HPM_P1;HPM_P2
2021/09/20 00:01:41;;;;;;;5.60;5.00;;;15.70;99.90;;;;;;5052229;28;20211;-70
2021/09/20 00:04:07;;;;;;;6.00;4.90;;;15.70;99.90;;;;;;5050284;28;20325;-70
2021/09/20 00:06:32;;;;;;;6.00;4.77;;;15.70;99.90;;;;;;5033224;28;20234;-71
2021/09/20 00:08:58;;;;;;;5.90;5.33;;;15.70;99.90;;;;;;5045874;28;20224;-71
2021/09/20 00:11:24;;;;;;;6.10;4.97;;;15.70;99.90;;;;;;5060865;28;20218;-71
2021/09/20 00:13:50;;;;;;;5.03;4.53;;;15.70;99.90;;;;;;5035559;28;20314;-70
2021/09/20 00:16:15;;;;;;;8.50;5.10;;;15.60;99.90;;;;;;5043644;28;20301;-70
2021/09/20 00:18:41;;;;;;;5.43;4.23;;;15.60;99.90;;;;;;5032769;28;20520;-70
2021/09/20 00:21:07;;;;;;;6.20;5.17;;;15.70;99.90;;;;;;5068188;28;20620;-70
2021/09/20 00:23:32;;;;;;;5.63;5.03;;;15.70;99.90;;;;;;5042800;28;20250;-70
2021/09/20 00:25:58;;;;;;;5.40;4.40;;;15.70;99.90;;;;;;5049347;28;20694;-71
2021/09/20 00:28:27;;;;;;;7.63;4.73;;;15.70;99.90;;;;;;5029820;28;20223;-70
2021/09/20 00:30:53;;;;;;;6.77;5.87;;;15.70;99.90;;;;;;5062907;28;20461;-70
2021/09/20 00:33:19;;;;;;;8.10;4.97;;;15.60;99.90;;;;;;5048488;28;20516;-71
2021/09/20 00:35:45;;;;;;;6.03;5.20;;;15.60;99.90;;;;;;5050644;28;20232;-71
2021/09/20 00:38:11;;;;;;;7.47;5.30;;;15.60;99.90;;;;;;5035894;28;20687;-71
2021/09/20 00:40:37;;;;;;;6.10;4.60;;;15.60;99.90;;;;;;5063146;28;20433;-72
2021/09/20 00:43:03;;;;;;;5.30;4.70;;;15.60;99.90;;;;;;5032780;28;20240;-70
2021/09/20 00:45:31;;;;;;;6.37;5.47;;;15.60;99.90;;;;;;5034932;28;20477;-70
2021/09/20 00:47:56;;;;;;;6.00;4.57;;;15.60;99.90;;;;;;5062101;28;20453;-70
2021/09/20 00:50:22;;;;;;;5.10;4.60;;;15.60;99.90;;;;;;5034558;28;20449;-70
2021/09/20 00:52:48;;;;;;;6.70;4.57;;;15.60;99.90;;;;;;5062518;28;20242;-70
2021/09/20 00:55:15;;;;;;;7.93;5.20;;;15.60;99.90;;;;;;5048590;28;20302;-71
2021/09/20 00:57:43;;;;;;;5.80;4.40;;;15.60;99.90;;;;;;5048847;28;20476;-71
2021/09/20 01:00:10;;;;;;;4.80;4.30;;;15.60;99.90;;;;;;5060883;28;20462;-71
2021/09/20 01:02:36;;;;;;;6.27;4.93;;;15.60;99.90;;;;;;5033552;28;20441;-71
2021/09/20 01:05:04;;;;;;;5.70;5.17;;;15.60;99.90;;;;;;5056019;28;20449;-70
2021/09/20 01:07:30;;;;;;;5.77;5.20;;;15.60;99.90;;;;;;5061574;28;21039;-71
2021/09/20 01:09:55;;;;;;;6.47;5.47;;;15.60;99.90;;;;;;5032890;28;20465;-71
2021/09/20 01:12:21;;;;;;;5.90;4.73;;;15.60;99.90;;;;;;5027949;28;20298;-70
2021/09/20 01:14:47;;;;;;;7.13;5.63;;;15.50;99.90;;;;;;5050074;28;20235;-70
2021/09/20 01:17:12;;;;;;;5.60;4.93;;;15.50;99.90;;;;;;5030023;28;20238;-71
2021/09/20 01:19:38;;;;;;;6.43;5.00;;;15.50;99.90;;;;;;5047603;28;20219;-70
2021/09/20 01:22:12;;;;;;;7.17;4.70;;;15.50;99.90;;;;;;5048080;28;20219;-71
2021/09/20 01:24:38;;;;;;;5.43;4.77;;;15.50;99.90;;;;;;5026680;28;20274;-71
2021/09/20 01:27:05;;;;;;;7.20;5.63;;;15.50;99.90;;;;;;5050611;28;20458;-70
2021/09/20 01:29:31;;;;;;;6.40;5.00;;;15.50;99.90;;;;;;5050412;28;20464;-70
2021/09/20 01:32:00;;;;;;;5.60;5.00;;;15.50;99.90;;;;;;5034019;28;20449;-71
2021/09/20 01:34:26;;;;;;;6.03;4.80;;;15.50;99.90;;;;;;5041120;28;20761;-70
2021/09/20 01:36:53;;;;;;;6.60;5.23;;;15.50;99.90;;;;;;5047335;28;20557;-69
2021/09/20 01:39:25;;;;;;;6.80;5.00;;;15.40;99.90;;;;;;5049619;28;20757;-71
2021/09/20 01:41:52;;;;;;;6.80;5.40;;;15.40;99.90;;;;;;5034008;28;21004;-70
2021/09/20 01:44:18;;;;;;;5.77;4.60;;;15.50;99.90;;;;;;5027331;28;20993;-71
2021/09/20 01:46:46;;;;;;;7.57;5.17;;;15.50;99.90;;;;;;5045021;28;20515;-70
2021/09/20 01:49:12;;;;;;;5.53;4.83;;;15.50;99.90;;;;;;5044111;28;20216;-71
2021/09/20 01:51:39;;;;;;;4.67;4.23;;;15.50;99.90;;;;;;5042135;28;20483;-72
2021/09/20 01:54:06;;;;;;;5.90;4.70;;;15.50;99.90;;;;;;5031653;28;20458;-71
2021/09/20 01:56:32;;;;;;;7.57;5.50;;;15.50;99.90;;;;;;5044225;28;20478;-70
2021/09/20 01:58:59;;;;;;;5.60;4.50;;;15.50;99.90;;;;;;5065404;28;20466;-70
2021/09/20 02:01:26;;;;;;;5.37;4.90;;;15.50;99.90;;;;;;5031893;28;20480;-70
2021/09/20 02:03:53;;;;;;;11.60;5.57;;;15.50;99.90;;;;;;5059541;28;20470;-70
2021/09/20 02:06:20;;;;;;;7.20;5.60;;;15.50;99.90;;;;;;5044947;28;20472;-71
2021/09/20 02:08:46;;;;;;;6.50;4.93;;;15.50;99.90;;;;;;5042927;28;21016;-71
2021/09/20 02:11:12;;;;;;;6.23;4.73;;;15.50;99.90;;;;;;5049330;28;20553;-71
2021/09/20 02:13:38;;;;;;;6.00;4.87;;;15.50;99.90;;;;;;5031419;28;20528;-71
2021/09/20 02:16:04;;;;;;;5.20;4.17;;;15.50;99.90;;;;;;5033457;28;20211;-70
2021/09/20 02:18:30;;;;;;;8.33;4.73;;;15.40;99.90;;;;;;5036742;28;20211;-71
2021/09/20 02:20:56;;;;;;;5.20;4.70;;;15.50;99.90;;;;;;5054569;28;20453;-71
2021/09/20 02:23:21;;;;;;;6.23;4.63;;;15.40;99.90;;;;;;5027488;28;20216;-71
2021/09/20 02:25:47;;;;;;;10.53;5.00;;;15.40;99.90;;;;;;5063354;28;20568;-71
2021/09/20 02:28:13;;;;;;;6.60;5.10;;;15.40;99.90;;;;;;5030186;28;20215;-71
2021/09/20 02:30:39;;;;;;;5.53;5.00;;;15.40;99.90;;;;;;5030720;28;20223;-71
2021/09/20 02:33:06;;;;;;;5.73;4.07;;;15.30;99.90;;;;;;5032094;28;20218;-70
2021/09/20 02:35:32;;;;;;;5.80;4.83;;;15.30;99.90;;;;;;5036430;28;20473;-70
2021/09/20 02:37:59;;;;;;;6.40;4.80;;;15.30;99.90;;;;;;5046567;28;20461;-70
2021/09/20 02:40:25;;;;;;;5.07;4.57;;;15.30;99.90;;;;;;5051890;28;20250;-70
2021/09/20 02:42:51;;;;;;;6.80;4.90;;;15.30;99.90;;;;;;5048607;28;20465;-70
2021/09/20 02:45:16;;;;;;;7.10;5.70;;;15.40;99.90;;;;;;5049921;28;20211;-71
2021/09/20 02:47:42;;;;;;;6.90;4.70;;;15.40;99.90;;;;;;5033321;28;20223;-71
2021/09/20 02:50:10;;;;;;;5.43;4.50;;;15.40;99.90;;;;;;5035512;28;20215;-70
2021/09/20 02:52:36;;;;;;;4.73;4.20;;;15.30;99.90;;;;;;5066864;28;20211;-71
2021/09/20 02:55:04;;;;;;;9.37;5.20;;;15.30;99.90;;;;;;5056081;28;20485;-70
2021/09/20 02:57:29;;;;;;;5.67;4.90;;;15.30;99.90;;;;;;5052901;28;20457;-70
2021/09/20 02:59:55;;;;;;;5.30;4.80;;;15.30;99.90;;;;;;5052148;28;21021;-70
2021/09/20 03:02:21;;;;;;;7.50;5.40;;;15.30;99.90;;;;;;5051830;28;20219;-71
2021/09/20 03:04:46;;;;;;;5.50;4.90;;;15.30;99.90;;;;;;5037173;28;20223;-71
2021/09/20 03:07:12;;;;;;;6.53;5.40;;;15.30;99.90;;;;;;5052147;28;20692;-71
2021/09/20 03:09:38;;;;;;;6.57;4.70;;;15.20;99.90;;;;;;5050234;28;20269;-71
2021/09/20 03:12:04;;;;;;;6.57;5.40;;;15.20;99.90;;;;;;5045325;28;20222;-71
2021/09/20 03:14:29;;;;;;;5.93;4.70;;;15.20;99.90;;;;;;5045517;28;20314;-70
2021/09/20 03:16:55;;;;;;;5.90;4.70;;;15.20;99.90;;;;;;5047982;28;21048;-71
2021/09/20 03:19:21;;;;;;;7.10;4.80;;;15.20;99.90;;;;;;5026214;28;20985;-71
2021/09/20 03:21:46;;;;;;;6.63;4.93;;;15.20;99.90;;;;;;5048180;28;20635;-71
2021/09/20 03:24:13;;;;;;;6.83;4.60;;;15.10;99.90;;;;;;5070701;28;20239;-70
2021/09/20 03:26:39;;;;;;;6.93;4.50;;;15.10;99.90;;;;;;5045028;28;20250;-71
2021/09/20 03:29:06;;;;;;;5.40;4.70;;;15.10;99.90;;;;;;5068262;28;20458;-69
2021/09/20 03:31:32;;;;;;;15.50;4.50;;;15.10;99.90;;;;;;5061594;28;20843;-70
2021/09/20 03:33:58;;;;;;;7.07;4.70;;;15.10;99.90;;;;;;5049665;28;20477;-70
2021/09/20 03:36:23;;;;;;;5.57;4.37;;;15.10;99.90;;;;;;5050403;28;20458;-70
2021/09/20 03:38:50;;;;;;;6.40;4.60;;;15.10;99.90;;;;;;5048623;28;20564;-71
2021/09/20 03:41:16;;;;;;;6.40;4.83;;;15.00;99.90;;;;;;5048261;28;20242;-70
2021/09/20 03:43:42;;;;;;;9.33;5.30;;;15.00;99.90;;;;;;5034738;28;20494;-70
2021/09/20 03:46:07;;;;;;;5.60;4.43;;;15.00;99.90;;;;;;5051872;28;20226;-70
2021/09/20 03:48:34;;;;;;;6.10;4.60;;;15.00;99.90;;;;;;5067277;28;20223;-70
2021/09/20 03:51:00;;;;;;;6.43;5.40;;;15.00;99.90;;;;;;5036949;28;20250;-69
2021/09/20 03:53:26;;;;;;;6.23;5.10;;;15.00;99.90;;;;;;5065080;28;20470;-71
2021/09/20 03:55:52;;;;;;;5.50;5.00;;;15.00;99.90;;;;;;5041071;28;20468;-69
2021/09/20 03:58:18;;;;;;;7.00;5.57;;;15.00;99.90;;;;;;5069329;28;20235;-71
2021/09/20 04:00:43;;;;;;;5.73;4.73;;;14.90;99.90;;;;;;5049039;28;20272;-71
2021/09/20 04:03:09;;;;;;;7.17;5.17;;;14.90;99.90;;;;;;5070341;28;20231;-71
2021/09/20 04:05:35;;;;;;;5.77;5.03;;;14.90;99.90;;;;;;5052609;28;20234;-70
2021/09/20 04:08:01;;;;;;;5.03;4.10;;;14.90;99.90;;;;;;5045458;28;20224;-70
2021/09/20 04:10:27;;;;;;;5.37;4.87;;;14.90;99.90;;;;;;5057773;28;20489;-70
2021/09/20 04:12:53;;;;;;;5.53;4.57;;;14.90;99.90;;;;;;5064467;28;20586;-71
2021/09/20 04:15:18;;;;;;;5.20;4.37;;;14.90;99.90;;;;;;5038661;28;20473;-70
2021/09/20 04:17:44;;;;;;;7.30;5.27;;;14.90;99.90;;;;;;5071290;28;20275;-71
2021/09/20 04:20:11;;;;;;;8.00;4.93;;;14.90;99.90;;;;;;5070358;28;20300;-70
2021/09/20 04:22:37;;;;;;;7.63;5.30;;;14.90;99.90;;;;;;5043843;28;20536;-71
2021/09/20 04:25:04;;;;;;;5.60;4.87;;;14.90;99.90;;;;;;5052940;28;20921;-71
2021/09/20 04:27:30;;;;;;;5.87;4.60;;;14.80;99.90;;;;;;5053144;28;20771;-71
2021/09/20 04:29:55;;;;;;;7.40;5.13;;;14.80;99.90;;;;;;5053383;28;20461;-70
2021/09/20 04:32:21;;;;;;;5.03;4.17;;;14.80;99.90;;;;;;5068803;28;20211;-71
2021/09/20 04:34:47;;;;;;;6.00;4.53;;;14.80;99.90;;;;;;5064828;28;20604;-71
2021/09/20 04:37:14;;;;;;;5.30;4.60;;;14.80;99.90;;;;;;5049789;28;20750;-70
2021/09/20 04:39:39;;;;;;;6.37;4.77;;;14.80;99.90;;;;;;5052842;28;20273;-72
2021/09/20 04:42:05;;;;;;;6.00;5.10;;;14.80;99.90;;;;;;5049171;28;21071;-70
2021/09/20 04:44:31;;;;;;;6.30;4.87;;;14.80;99.90;;;;;;5064468;28;20215;-71
2021/09/20 04:46:56;;;;;;;5.70;4.60;;;14.80;99.90;;;;;;5063043;28;20215;-70
2021/09/20 04:49:22;;;;;;;6.20;5.07;;;14.70;99.90;;;;;;5050522;28;20222;-72
2021/09/20 04:51:48;;;;;;;8.03;4.90;;;14.70;99.90;;;;;;5032642;28;20229;-70
2021/09/20 04:54:14;;;;;;;5.63;4.83;;;14.70;99.90;;;;;;5035547;28;20227;-71
2021/09/20 04:56:39;;;;;;;5.00;4.40;;;14.70;99.90;;;;;;5048804;28;20215;-72
2021/09/20 04:59:05;;;;;;;6.63;5.10;;;14.70;99.90;;;;;;5034806;28;20290;-70
2021/09/20 05:01:30;;;;;;;7.00;5.47;;;14.70;99.90;;;;;;5063917;28;20678;-71
2021/09/20 05:03:56;;;;;;;7.00;5.33;;;14.70;99.90;;;;;;5047254;28;20222;-71
2021/09/20 05:06:22;;;;;;;7.00;5.30;;;14.70;99.90;;;;;;5048889;28;20215;-71
2021/09/20 05:08:47;;;;;;;5.73;4.50;;;14.80;99.90;;;;;;5049114;28;20215;-71
2021/09/20 05:11:13;;;;;;;8.20;5.27;;;14.80;99.90;;;;;;5066395;28;20222;-71
2021/09/20 05:13:39;;;;;;;6.67;5.10;;;14.70;99.90;;;;;;5050962;28;20272;-70
2021/09/20 05:16:05;;;;;;;6.03;5.27;;;14.70;99.90;;;;;;5031921;28;20589;-70
2021/09/20 05:18:30;;;;;;;6.20;4.97;;;14.70;99.90;;;;;;5050838;28;20638;-71
2021/09/20 05:20:56;;;;;;;5.70;5.07;;;14.70;99.90;;;;;;5040963;28;20253;-71
2021/09/20 05:23:22;;;;;;;5.07;4.37;;;14.70;99.90;;;;;;5038553;28;20608;-71
2021/09/20 05:25:47;;;;;;;7.43;5.50;;;14.70;99.90;;;;;;5039890;28;20227;-70
2021/09/20 05:28:13;;;;;;;8.93;5.37;;;14.70;99.90;;;;;;5024832;28;20239;-71
2021/09/20 05:30:39;;;;;;;6.37;4.57;;;14.70;99.90;;;;;;5057367;28;20281;-71
2021/09/20 05:33:04;;;;;;;6.33;5.30;;;14.70;99.90;;;;;;5030833;28;20235;-71
2021/09/20 05:35:30;;;;;;;6.23;4.73;;;14.80;99.90;;;;;;5044265;28;20223;-71
2021/09/20 05:37:56;;;;;;;6.63;5.00;;;14.80;99.90;;;;;;5013958;28;20215;-69
2021/09/20 05:40:25;;;;;;;5.63;4.73;;;14.80;99.90;;;;;;5044170;28;20460;-71
2021/09/20 05:42:56;;;;;;;6.70;4.93;;;14.80;99.90;;;;;;5034289;28;20261;-71
2021/09/20 05:45:23;;;;;;;8.17;5.60;;;14.80;99.90;;;;;;5047798;28;20996;-70
2021/09/20 05:47:50;;;;;;;8.00;4.73;;;14.80;99.90;;;;;;5035028;28;20456;-70
2021/09/20 05:50:16;;;;;;;6.60;4.60;;;14.80;99.90;;;;;;5032562;28;20500;-71
2021/09/20 05:52:42;;;;;;;6.90;4.80;;;14.70;99.90;;;;;;5028701;28;21003;-70
2021/09/20 05:55:09;;;;;;;8.13;5.87;;;14.70;99.90;;;;;;5068375;28;20473;-71
2021/09/20 05:57:35;;;;;;;5.03;4.53;;;14.70;99.90;;;;;;5034406;28;20453;-71
2021/09/20 06:00:01;;;;;;;5.97;4.73;;;14.70;99.90;;;;;;5070030;28;20460;-71
2021/09/20 06:02:26;;;;;;;9.83;5.70;;;14.80;99.90;;;;;;5050831;28;20721;-71
2021/09/20 06:04:52;;;;;;;9.60;5.77;;;14.80;99.90;;;;;;5066793;28;20449;-71
2021/09/20 06:07:18;;;;;;;6.27;5.20;;;14.80;99.90;;;;;;5033250;28;20718;-71
2021/09/20 06:09:44;;;;;;;6.07;5.10;;;14.80;99.90;;;;;;5053935;28;20284;-71
2021/09/20 06:12:09;;;;;;;6.73;5.93;;;14.80;99.90;;;;;;5038136;28;20215;-71
2021/09/20 06:14:35;;;;;;;7.10;4.80;;;14.80;99.90;;;;;;5038689;28;20246;-71
2021/09/20 06:17:01;;;;;;;6.87;4.47;;;14.80;99.90;;;;;;5054984;28;20223;-71
2021/09/20 06:19:27;;;;;;;6.77;5.33;;;14.80;99.90;;;;;;5055040;28;20230;-71
2021/09/20 06:21:53;;;;;;;6.03;5.33;;;14.80;99.90;;;;;;5035360;28;20468;-71
2021/09/20 06:24:18;;;;;;;9.43;5.67;;;14.80;99.90;;;;;;5058936;28;20294;-71
2021/09/20 06:26:44;;;;;;;8.07;5.60;;;14.80;99.90;;;;;;5069727;28;20655;-71
2021/09/20 06:29:10;;;;;;;5.83;5.23;;;14.80;99.90;;;;;;5054860;28;20234;-70
2021/09/20 06:31:37;;;;;;;8.70;5.40;;;14.80;99.90;;;;;;5067154;28;20736;-70
2021/09/20 06:34:04;;;;;;;5.83;5.23;;;14.80;99.90;;;;;;5037071;28;20469;-71
2021/09/20 06:36:29;;;;;;;6.60;5.73;;;14.80;99.90;;;;;;5054411;28;20529;-71
2021/09/20 06:38:56;;;;;;;7.83;5.57;;;14.80;99.90;;;;;;5070723;28;21024;-70
2021/09/20 06:41:23;;;;;;;8.23;5.70;;;14.80;99.90;;;;;;5037652;28;20317;-71
2021/09/20 06:43:49;;;;;;;7.17;5.93;;;14.80;99.90;;;;;;5033941;28;21006;-71
2021/09/20 06:46:15;;;;;;;8.67;7.07;;;14.80;99.90;;;;;;5048233;28;20502;-69
2021/09/20 06:48:42;;;;;;;9.80;5.73;;;14.70;99.90;;;;;;5047808;28;20215;-70
2021/09/20 06:51:08;;;;;;;6.03;5.43;;;14.70;99.90;;;;;;5046447;28;20450;-71
2021/09/20 06:53:33;;;;;;;10.27;7.23;;;14.70;99.90;;;;;;5053451;28;20464;-71
2021/09/20 06:55:59;;;;;;;7.30;5.90;;;14.70;99.90;;;;;;5037333;28;20306;-70
2021/09/20 06:58:24;;;;;;;14.80;7.03;;;14.60;99.90;;;;;;5044772;28;20223;-71
2021/09/20 07:00:50;;;;;;;8.70;6.30;;;14.60;99.90;;;;;;5033896;28;20231;-71
2021/09/20 07:03:16;;;;;;;6.70;5.60;;;14.70;99.90;;;;;;5063231;28;20276;-70
2021/09/20 07:05:42;;;;;;;8.30;6.07;;;14.70;99.90;;;;;;5037684;28;20236;-71
2021/09/20 07:08:08;;;;;;;7.10;5.27;;;14.70;99.90;;;;;;5049093;28;20230;-70
2021/09/20 07:10:34;;;;;;;6.23;5.17;;;14.70;99.90;;;;;;5033625;28;20949;-71
2021/09/20 07:13:00;;;;;;;6.80;5.73;;;14.70;99.90;;;;;;5025468;28;20450;-71
2021/09/20 07:15:25;;;;;;;8.80;6.37;;;14.70;99.90;;;;;;5033675;28;20717;-71
2021/09/20 07:17:51;;;;;;;7.33;5.70;;;14.70;99.90;;;;;;5051334;28;20230;-71
2021/09/20 07:20:17;;;;;;;7.60;6.03;;;14.70;99.90;;;;;;5059363;28;20223;-71
2021/09/20 07:22:44;;;;;;;7.20;6.47;;;14.70;99.90;;;;;;5046641;28;20235;-71
2021/09/20 07:25:11;;;;;;;8.90;5.90;;;14.60;99.90;;;;;;5035899;28;20497;-70
2021/09/20 07:27:38;;;;;;;8.70;6.90;;;14.70;99.90;;;;;;5052238;28;20454;-71
2021/09/20 07:30:08;;;;;;;10.67;6.57;;;14.70;99.90;;;;;;5044629;28;20463;-70
2021/09/20 07:32:34;;;;;;;8.53;6.73;;;14.70;99.90;;;;;;5038024;28;20450;-71
2021/09/20 07:34:59;;;;;;;9.67;6.70;;;14.70;99.90;;;;;;5051911;28;20477;-71
2021/09/20 07:37:25;;;;;;;8.60;6.80;;;14.70;99.90;;;;;;5044615;28;20215;-71
2021/09/20 07:39:51;;;;;;;8.90;6.13;;;14.70;99.90;;;;;;5052668;28;20302;-71
2021/09/20 07:42:17;;;;;;;7.17;6.30;;;14.70;99.90;;;;;;5032119;28;20706;-71
2021/09/20 07:44:42;;;;;;;8.07;6.57;;;14.70;99.90;;;;;;5016262;28;20691;-70
2021/09/20 07:47:08;;;;;;;6.53;5.50;;;14.70;99.90;;;;;;5051461;28;20515;-70
2021/09/20 07:49:34;;;;;;;8.90;6.03;;;14.70;99.90;;;;;;5048328;28;20224;-71
2021/09/20 07:52:00;;;;;;;7.70;6.50;;;14.70;99.90;;;;;;5043588;28;20257;-71
2021/09/20 07:54:25;;;;;;;12.50;6.50;;;14.80;99.90;;;;;;5034737;28;20215;-71
2021/09/20 07:56:51;;;;;;;10.17;7.00;;;14.80;99.90;;;;;;5033744;28;20230;-71
2021/09/20 07:59:16;;;;;;;10.33;6.17;;;14.80;99.90;;;;;;5052519;28;20288;-70
2021/09/20 08:01:42;;;;;;;9.80;7.00;;;14.80;99.90;;;;;;5049790;28;20246;-70
2021/09/20 08:04:08;;;;;;;8.97;6.53;;;14.80;99.90;;;;;;5059017;28;20236;-70
2021/09/20 08:06:34;;;;;;;8.23;5.57;;;14.70;99.90;;;;;;5014120;28;20231;-70
2021/09/20 08:08:59;;;;;;;8.37;6.90;;;14.70;99.90;;;;;;5017138;28;20301;-71
2021/09/20 08:11:25;;;;;;;6.03;5.43;;;14.70;99.90;;;;;;5033209;28;20457;-70
2021/09/20 08:13:51;;;;;;;8.40;6.13;;;14.70;99.90;;;;;;5032077;28;20605;-70
2021/09/20 08:16:17;;;;;;;7.37;5.60;;;14.80;99.90;;;;;;5032245;28;20223;-71
2021/09/20 08:18:43;;;;;;;11.13;6.60;;;14.80;99.90;;;;;;5028633;28;20650;-70
2021/09/20 08:21:08;;;;;;;7.43;5.87;;;14.80;99.90;;;;;;5064101;28;20215;-70
2021/09/20 08:23:35;;;;;;;12.50;7.50;;;14.80;99.90;;;;;;5031312;28;20223;-71
2021/09/20 08:26:01;;;;;;;9.47;7.17;;;14.80;99.90;;;;;;5034483;28;20234;-71
2021/09/20 08:28:27;;;;;;;10.40;6.77;;;14.80;99.90;;;;;;5033654;28;20523;-70
2021/09/20 08:30:53;;;;;;;10.07;6.63;;;14.80;99.90;;;;;;5050930;28;20703;-71
2021/09/20 08:33:18;;;;;;;8.27;6.53;;;14.80;99.90;;;;;;5050467;28;20234;-71
2021/09/20 08:35:44;;;;;;;7.20;5.90;;;14.80;99.90;;;;;;5036749;28;20703;-71
2021/09/20 08:38:11;;;;;;;10.73;6.43;;;14.80;99.90;;;;;;5048746;28;20223;-71
2021/09/20 08:40:37;;;;;;;7.93;6.53;;;14.90;99.90;;;;;;5035416;28;20517;-71
2021/09/20 08:43:03;;;;;;;10.20;6.93;;;14.90;99.90;;;;;;5032569;28;20218;-70
2021/09/20 08:45:29;;;;;;;8.90;7.10;;;14.90;99.90;;;;;;5067391;28;20725;-70
2021/09/20 08:47:58;;;;;;;12.30;6.90;;;14.90;99.90;;;;;;5069366;28;20307;-70
2021/09/20 08:50:32;;;;;;;8.67;6.50;;;14.90;99.90;;;;;;5047076;28;20481;-71
2021/09/20 08:52:59;;;;;;;9.70;7.20;;;15.00;99.90;;;;;;5030357;28;20449;-71
2021/09/20 08:55:24;;;;;;;8.93;6.90;;;15.00;99.90;;;;;;5033842;28;21203;-71
2021/09/20 08:57:50;;;;;;;8.93;6.37;;;15.00;99.90;;;;;;5016054;28;20461;-71
2021/09/20 09:00:16;;;;;;;11.40;7.60;;;15.00;99.90;;;;;;5030303;28;20302;-70
2021/09/20 09:02:42;;;;;;;8.17;6.07;;;15.00;99.90;;;;;;5054298;28;20343;-71
2021/09/20 09:05:15;;;;;;;9.30;6.63;;;15.10;99.90;;;;;;5024435;28;20544;-71
2021/09/20 09:07:42;;;;;;;11.17;7.20;;;15.10;99.90;;;;;;5048821;28;20703;-70
2021/09/20 09:10:09;;;;;;;11.57;7.90;;;15.10;99.90;;;;;;5026151;28;20493;-71
2021/09/20 09:12:36;;;;;;;11.80;7.50;;;15.10;99.90;;;;;;5040759;28;20480;-72
2021/09/20 09:15:05;;;;;;;6.87;6.10;;;15.10;99.90;;;;;;5049465;28;20470;-70
2021/09/20 09:17:53;;;;;;;7.80;5.70;;;15.10;99.90;;;;;;5032190;28;20493;-71
2021/09/20 09:20:28;;;;;;;7.07;5.73;;;15.20;99.90;;;;;;5031660;28;20465;-70
2021/09/20 09:23:04;;;;;;;8.27;6.63;;;15.20;99.90;;;;;;5028765;28;20462;-71
2021/09/20 09:25:39;;;;;;;8.20;6.00;;;15.30;99.90;;;;;;5048453;28;20511;-71
2021/09/20 09:28:17;;;;;;;10.30;6.60;;;15.30;99.90;;;;;;5037973;28;20474;-71
2021/09/20 09:30:52;;;;;;;10.17;6.10;;;15.40;99.90;;;;;;5035846;28;20465;-70
2021/09/20 09:33:35;;;;;;;10.23;6.63;;;15.40;99.90;;;;;;5036827;28;20536;-71
2021/09/20 09:36:01;;;;;;;8.00;6.30;;;15.50;99.90;;;;;;5059138;28;21050;-72
2021/09/20 09:38:27;;;;;;;9.50;6.37;;;15.50;99.90;;;;;;5048948;28;20504;-71
2021/09/20 09:40:57;;;;;;;8.57;6.20;;;15.50;99.90;;;;;;5031611;28;20454;-71
2021/09/20 09:43:34;;;;;;;8.80;6.03;;;15.50;99.90;;;;;;5026302;28;20737;-71
2021/09/20 09:46:17;;;;;;;7.50;6.10;;;15.50;99.90;;;;;;5045458;28;20537;-71
2021/09/20 09:48:44;;;;;;;11.90;7.10;;;15.60;99.90;;;;;;5047769;28;20606;-72
2021/09/20 09:51:10;;;;;;;7.90;6.17;;;15.60;99.90;;;;;;5031818;28;20459;-71
2021/09/20 09:53:39;;;;;;;10.30;6.80;;;15.70;99.90;;;;;;5048121;28;20476;-70
2021/09/20 09:56:07;;;;;;;9.03;6.80;;;15.80;99.90;;;;;;5048781;28;20548;-70
2021/09/20 09:58:33;;;;;;;11.00;7.80;;;15.80;99.90;;;;;;5036876;28;20462;-71
2021/09/20 10:01:14;;;;;;;9.43;6.50;;;15.80;99.90;;;;;;5047295;28;20456;-71
2021/09/20 10:04:23;;;;;;;7.27;6.20;;;15.90;99.90;;;;;;5065131;28;20238;-70
2021/09/20 10:06:55;;;;;;;9.07;6.47;;;15.90;99.90;;;;;;5048752;28;20463;-71
2021/09/20 10:09:27;;;;;;;8.13;6.60;;;15.90;99.90;;;;;;5025288;28;20461;-71
2021/09/20 10:11:55;;;;;;;11.60;6.73;;;15.90;99.90;;;;;;5038426;28;20489;-71
2021/09/20 10:14:22;;;;;;;8.80;6.60;;;15.90;99.90;;;;;;5045719;28;20473;-71
2021/09/20 10:16:50;;;;;;;7.80;6.20;;;16.00;99.90;;;;;;5048214;28;20453;-71
2021/09/20 10:19:16;;;;;;;9.07;6.07;;;16.00;99.90;;;;;;5048149;28;20454;-71
2021/09/20 10:21:42;;;;;;;9.03;6.40;;;16.00;99.90;;;;;;5065452;28;20519;-71
2021/09/20 10:24:08;;;;;;;7.23;5.70;;;16.00;99.90;;;;;;5031807;28;20461;-71
2021/09/20 10:26:34;;;;;;;9.67;6.23;;;16.10;99.90;;;;;;5060830;28;20241;-71
2021/09/20 10:29:03;;;;;;;7.53;6.10;;;16.10;99.90;;;;;;5032168;28;20537;-71
2021/09/20 10:31:31;;;;;;;7.60;6.30;;;16.10;99.90;;;;;;5026870;28;20325;-71
2021/09/20 10:34:19;;;;;;;9.87;7.30;;;16.10;99.90;;;;;;5054699;28;21037;-71
2021/09/20 10:36:59;;;;;;;11.93;7.00;;;16.10;99.90;;;;;;5064555;28;20540;-71
2021/09/20 10:39:43;;;;;;;7.57;6.07;;;16.10;99.90;;;;;;5027417;28;20533;-70
2021/09/20 10:42:11;;;;;;;7.87;6.57;;;16.10;99.90;;;;;;5025113;28;20469;-71
2021/09/20 10:44:41;;;;;;;9.67;6.20;;;16.20;99.90;;;;;;5033889;28;20453;-71
2021/09/20 10:47:15;;;;;;;10.00;6.63;;;16.20;99.90;;;;;;5047422;28;20840;-71
2021/09/20 10:49:49;;;;;;;7.33;6.63;;;16.30;99.90;;;;;;5044741;28;20599;-71
2021/09/20 10:52:15;;;;;;;8.47;6.40;;;16.30;99.90;;;;;;5047222;28;20465;-71
2021/09/20 10:55:01;;;;;;;8.83;6.63;;;16.30;99.90;;;;;;5040416;28;20465;-72
2021/09/20 10:57:26;;;;;;;9.33;6.87;;;16.30;99.90;;;;;;5066389;28;20540;-71
2021/09/20 10:59:52;;;;;;;8.33;6.70;;;16.30;99.90;;;;;;5048343;28;20552;-71
2021/09/20 11:02:19;;;;;;;7.70;6.17;;;16.30;99.90;;;;;;5068669;28;20326;-71
2021/09/20 11:04:46;;;;;;;7.73;6.43;;;16.30;99.90;;;;;;5051718;28;20239;-71
2021/09/20 11:07:22;;;;;;;10.07;7.47;;;16.40;99.90;;;;;;5050477;28;20457;-70
2021/09/20 11:09:52;;;;;;;8.00;6.20;;;16.40;99.90;;;;;;5046356;28;20469;-71
2021/09/20 11:12:27;;;;;;;7.50;6.10;;;16.40;99.90;;;;;;5049217;28;20450;-71
2021/09/20 11:15:13;;;;;;;9.73;6.63;;;16.40;99.90;;;;;;5035140;28;20888;-70
2021/09/20 11:17:42;;;;;;;8.50;6.70;;;16.40;99.90;;;;;;5031404;28;20474;-70
2021/09/20 11:20:35;;;;;;;9.27;6.40;;;16.40;99.90;;;;;;5031815;28;20451;-71
2021/09/20 11:23:14;;;;;;;8.53;6.90;;;16.40;99.90;;;;;;5030822;28;20470;-71
2021/09/20 11:25:41;;;;;;;8.10;6.27;;;16.40;99.90;;;;;;5068291;28;20852;-71
2021/09/20 11:28:07;;;;;;;7.80;6.50;;;16.40;99.90;;;;;;5068494;28;20456;-71
2021/09/20 11:30:33;;;;;;;11.53;7.50;;;16.40;99.90;;;;;;5035434;28;20448;-71
2021/09/20 11:33:02;;;;;;;7.37;6.40;;;16.40;99.90;;;;;;5056468;28;20448;-70
2021/09/20 11:35:30;;;;;;;11.37;7.80;;;16.50;99.90;;;;;;5038638;28;20457;-71
2021/09/20 11:37:59;;;;;;;10.13;8.00;;;16.50;99.90;;;;;;5036099;28;20488;-69
2021/09/20 11:40:27;;;;;;;8.97;6.90;;;16.50;99.90;;;;;;5052827;28;20461;-71
2021/09/20 11:42:57;;;;;;;11.53;6.60;;;16.60;99.90;;;;;;5035673;28;20844;-71
2021/09/20 11:45:31;;;;;;;7.40;5.97;;;16.50;99.90;;;;;;5052354;28;20449;-71
2021/09/20 11:47:59;;;;;;;7.33;5.90;;;16.60;99.90;;;;;;5053371;28;20468;-69
2021/09/20 11:50:31;;;;;;;8.00;6.20;;;16.60;99.90;;;;;;5043695;28;20453;-72
2021/09/20 11:53:02;;;;;;;10.87;6.97;;;16.60;99.90;;;;;;5052146;28;20539;-71
2021/09/20 11:55:32;;;;;;;7.93;6.50;;;16.60;99.90;;;;;;5034962;28;20970;-71
2021/09/20 11:58:07;;;;;;;9.57;7.17;;;16.60;99.90;;;;;;5020948;28;20450;-69
2021/09/20 12:00:38;;;;;;;10.30;6.70;;;16.60;99.90;;;;;;5033209;28;20473;-71
2021/09/20 12:03:08;;;;;;;8.53;6.53;;;16.70;99.90;;;;;;5051752;28;20457;-71
2021/09/20 12:05:41;;;;;;;7.73;6.17;;;16.70;99.90;;;;;;5035430;28;20454;-71
2021/09/20 12:08:09;;;;;;;6.77;5.30;;;16.70;99.90;;;;;;5034622;28;21012;-71
2021/09/20 12:10:40;;;;;;;9.90;6.20;;;16.70;99.90;;;;;;5044798;28;20894;-71
2021/09/20 12:13:09;;;;;;;8.93;6.10;;;16.70;99.90;;;;;;5034268;28;20484;-71
2021/09/20 12:15:39;;;;;;;8.10;6.00;;;16.70;99.90;;;;;;5052610;28;20454;-70
2021/09/20 12:18:27;;;;;;;8.90;6.33;;;16.70;99.90;;;;;;5052123;28;20461;-71
2021/09/20 12:20:56;;;;;;;8.47;6.27;;;16.80;99.90;;;;;;5052177;28;20465;-71
2021/09/20 12:23:35;;;;;;;7.60;5.97;;;16.80;99.90;;;;;;5051174;28;20887;-71
2021/09/20 12:26:04;;;;;;;9.80;6.77;;;16.80;99.90;;;;;;5064621;28;20474;-71
2021/09/20 12:28:33;;;;;;;10.47;6.37;;;16.80;99.90;;;;;;5028054;28;20461;-71
2021/09/20 12:31:21;;;;;;;8.17;6.07;;;16.80;99.90;;;;;;5050278;28;20469;-71
2021/09/20 12:33:50;;;;;;;9.93;5.80;;;16.80;99.90;;;;;;5046053;28;20484;-71
2021/09/20 12:36:36;;;;;;;7.57;5.63;;;16.80;99.90;;;;;;5051844;28;20539;-71
2021/09/20 12:39:17;;;;;;;9.67;6.60;;;16.80;99.90;;;;;;5049562;28;20461;-71
2021/09/20 12:41:45;;;;;;;7.03;5.17;;;16.80;99.90;;;;;;5063010;28;20456;-71
2021/09/20 12:44:13;;;;;;;7.73;5.67;;;16.80;99.90;;;;;;5034872;28;20453;-71
2021/09/20 12:46:40;;;;;;;7.87;5.80;;;16.90;99.90;;;;;;5050568;28;20525;-70
2021/09/20 12:49:08;;;;;;;10.93;5.80;;;16.90;99.90;;;;;;5052204;28;20453;-70